sensor_id;sensor_type;location;lat;lon;timestamp;P1;durP1;ratioP1;P2;durP2;ratioP2
23802;SDS011;12082;51.786;6.018;2023-05-20T00:01:15;116.53;;;110.33;;
23802;SDS011;12082;51.786;6.018;2023-05-20T00:03:41;113.60;;;107.97;;
23802;SDS011;12082;51.786;6.018;2023-05-20T00:06:07;110.47;;;104.87;;
23802;SDS011;12082;51.786;6.018;2023-05-20T00:08:32;111.60;;;105.70;;
23802;SDS011;12082;51.786;6.018;2023-05-20T00:10:58;111.23;;;105.33;;
23802;SDS011;12082;51.786;6.018;2023-05-20T00:13:23;115.03;;;109.37;;
23802;SDS011;12082;51.786;6.018;2023-05-20T00:15:50;116.67;;;110.90;;
23802;SDS011;12082;51.786;6.018;2023-05-20T00:18:17;115.27;;;109.17;;
23802;SDS011;12082;51.786;6.018;2023-05-20T00:20:43;118.10;;;111.50;;
23802;SDS011;12082;51.786;6.018;2023-05-20T00:23:08;121.93;;;115.77;;
23802;SDS011;12082;51.786;6.018;2023-05-20T00:25:34;122.37;;;116.23;;
23802;SDS011;12082;51.786;6.018;2023-05-20T00:27:59;125.03;;;118.67;;
23802;SDS011;12082;51.786;6.018;2023-05-20T00:30:25;123.20;;;116.73;;
23802;SDS011;12082;51.786;6.018;2023-05-20T00:32:51;120.17;;;114.07;;
23802;SDS011;12082;51.786;6.018;2023-05-20T00:35:16;123.97;;;117.53;;
23802;SDS011;12082;51.786;6.018;2023-05-20T00:37:42;127.83;;;120.73;;
23802;SDS011;12082;51.786;6.018;2023-05-20T00:40:07;123.17;;;117.07;;
23802;SDS011;12082;51.786;6.018;2023-05-20T00:42:33;126.73;;;120.07;;
23802;SDS011;12082;51.786;6.018;2023-05-20T00:44:59;125.77;;;119.57;;
23802;SDS011;12082;51.786;6.018;2023-05-20T00:47:26;128.33;;;122.13;;
23802;SDS011;12082;51.786;6.018;2023-05-20T00:49:54;128.47;;;122.07;;
23802;SDS011;12082;51.786;6.018;2023-05-20T00:52:20;131.93;;;125.17;;
23802;SDS011;12082;51.786;6.018;2023-05-20T00:54:46;139.67;;;132.60;;
23802;SDS011;12082;51.786;6.018;2023-05-20T00:57:13;137.50;;;130.33;;
23802;SDS011;12082;51.786;6.018;2023-05-20T00:59:40;141.03;;;134.13;;
23802;SDS011;12082;51.786;6.018;2023-05-20T01:02:06;143.70;;;136.57;;
23802;SDS011;12082;51.786;6.018;2023-05-20T01:04:32;147.43;;;139.83;;
23802;SDS011;12082;51.786;6.018;2023-05-20T01:06:59;149.70;;;142.17;;
23802;SDS011;12082;51.786;6.018;2023-05-20T01:09:26;150.93;;;143.40;;
23802;SDS011;12082;51.786;6.018;2023-05-20T01:14:48;150.00;;;142.37;;
23802;SDS011;12082;51.786;6.018;2023-05-20T01:17:20;149.47;;;142.20;;
23802;SDS011;12082;51.786;6.018;2023-05-20T01:19:51;147.10;;;139.80;;
23802;SDS011;12082;51.786;6.018;2023-05-20T01:22:23;149.30;;;141.97;;
23802;SDS011;12082;51.786;6.018;2023-05-20T01:24:52;147.27;;;140.03;;
23802;SDS011;12082;51.786;6.018;2023-05-20T01:27:18;148.70;;;140.87;;
23802;SDS011;12082;51.786;6.018;2023-05-20T01:29:46;148.43;;;140.90;;
23802;SDS011;12082;51.786;6.018;2023-05-20T01:32:23;145.90;;;138.80;;
23802;SDS011;12082;51.786;6.018;2023-05-20T01:34:52;146.77;;;139.03;;
23802;SDS011;12082;51.786;6.018;2023-05-20T01:37:19;147.93;;;139.70;;
23802;SDS011;12082;51.786;6.018;2023-05-20T01:39:47;145.57;;;138.63;;
23802;SDS011;12082;51.786;6.018;2023-05-20T01:42:14;147.20;;;139.50;;
23802;SDS011;12082;51.786;6.018;2023-05-20T01:44:41;146.37;;;139.17;;
23802;SDS011;12082;51.786;6.018;2023-05-20T01:47:07;145.83;;;138.40;;
23802;SDS011;12082;51.786;6.018;2023-05-20T01:49:32;143.63;;;136.53;;
23802;SDS011;12082;51.786;6.018;2023-05-20T01:51:58;147.30;;;139.93;;
23802;SDS011;12082;51.786;6.018;2023-05-20T01:54:24;144.03;;;136.73;;
23802;SDS011;12082;51.786;6.018;2023-05-20T01:56:49;145.10;;;137.83;;
23802;SDS011;12082;51.786;6.018;2023-05-20T01:59:15;148.17;;;140.97;;
23802;SDS011;12082;51.786;6.018;2023-05-20T02:01:41;151.23;;;143.50;;
23802;SDS011;12082;51.786;6.018;2023-05-20T02:04:06;151.40;;;144.20;;
23802;SDS011;12082;51.786;6.018;2023-05-20T02:06:32;148.30;;;140.80;;
23802;SDS011;12082;51.786;6.018;2023-05-20T02:08:58;147.20;;;139.93;;
23802;SDS011;12082;51.786;6.018;2023-05-20T02:11:23;146.90;;;139.47;;
23802;SDS011;12082;51.786;6.018;2023-05-20T02:13:49;146.57;;;139.37;;
23802;SDS011;12082;51.786;6.018;2023-05-20T02:16:15;147.20;;;139.77;;
23802;SDS011;12082;51.786;6.018;2023-05-20T02:18:41;147.40;;;139.93;;
23802;SDS011;12082;51.786;6.018;2023-05-20T02:21:07;146.13;;;139.03;;
23802;SDS011;12082;51.786;6.018;2023-05-20T02:23:33;146.77;;;139.53;;
23802;SDS011;12082;51.786;6.018;2023-05-20T02:25:59;146.83;;;139.83;;
23802;SDS011;12082;51.786;6.018;2023-05-20T02:28:25;149.57;;;142.10;;
23802;SDS011;12082;51.786;6.018;2023-05-20T02:30:51;150.30;;;142.70;;
23802;SDS011;12082;51.786;6.018;2023-05-20T02:33:17;146.87;;;139.40;;
23802;SDS011;12082;51.786;6.018;2023-05-20T02:35:43;147.43;;;140.07;;
23802;SDS011;12082;51.786;6.018;2023-05-20T02:38:09;145.03;;;137.50;;
23802;SDS011;12082;51.786;6.018;2023-05-20T02:40:35;147.13;;;140.00;;
23802;SDS011;12082;51.786;6.018;2023-05-20T02:43:01;145.40;;;137.63;;
23802;SDS011;12082;51.786;6.018;2023-05-20T02:45:27;146.70;;;139.57;;
23802;SDS011;12082;51.786;6.018;2023-05-20T02:47:52;149.20;;;141.70;;
23802;SDS011;12082;51.786;6.018;2023-05-20T02:50:18;147.17;;;139.77;;
23802;SDS011;12082;51.786;6.018;2023-05-20T02:52:43;146.77;;;139.30;;
23802;SDS011;12082;51.786;6.018;2023-05-20T02:55:09;145.33;;;137.90;;
23802;SDS011;12082;51.786;6.018;2023-05-20T02:57:35;146.27;;;138.57;;
23802;SDS011;12082;51.786;6.018;2023-05-20T03:00:04;143.90;;;137.00;;
23802;SDS011;12082;51.786;6.018;2023-05-20T03:02:31;147.43;;;139.53;;
23802;SDS011;12082;51.786;6.018;2023-05-20T03:04:57;143.67;;;136.63;;
23802;SDS011;12082;51.786;6.018;2023-05-20T03:07:23;149.10;;;141.80;;
23802;SDS011;12082;51.786;6.018;2023-05-20T03:09:49;146.47;;;139.30;;
23802;SDS011;12082;51.786;6.018;2023-05-20T03:12:14;150.43;;;143.13;;
23802;SDS011;12082;51.786;6.018;2023-05-20T03:14:40;149.13;;;141.63;;
23802;SDS011;12082;51.786;6.018;2023-05-20T03:17:05;146.97;;;139.60;;
23802;SDS011;12082;51.786;6.018;2023-05-20T03:19:31;144.63;;;137.40;;
23802;SDS011;12082;51.786;6.018;2023-05-20T03:21:56;142.03;;;135.13;;
23802;SDS011;12082;51.786;6.018;2023-05-20T03:24:22;143.27;;;136.13;;
23802;SDS011;12082;51.786;6.018;2023-05-20T03:26:48;141.13;;;133.97;;
23802;SDS011;12082;51.786;6.018;2023-05-20T03:29:13;141.57;;;134.67;;
23802;SDS011;12082;51.786;6.018;2023-05-20T03:31:41;140.63;;;133.53;;
23802;SDS011;12082;51.786;6.018;2023-05-20T03:34:07;137.17;;;130.10;;
23802;SDS011;12082;51.786;6.018;2023-05-20T03:36:33;135.17;;;128.33;;
23802;SDS011;12082;51.786;6.018;2023-05-20T03:38:58;132.53;;;125.87;;
23802;SDS011;12082;51.786;6.018;2023-05-20T03:41:25;133.70;;;127.10;;
23802;SDS011;12082;51.786;6.018;2023-05-20T03:43:51;133.23;;;126.50;;
23802;SDS011;12082;51.786;6.018;2023-05-20T03:46:16;133.10;;;126.70;;
23802;SDS011;12082;51.786;6.018;2023-05-20T03:48:42;135.07;;;128.27;;
23802;SDS011;12082;51.786;6.018;2023-05-20T03:51:07;134.30;;;127.50;;
23802;SDS011;12082;51.786;6.018;2023-05-20T03:53:33;136.30;;;129.50;;
23802;SDS011;12082;51.786;6.018;2023-05-20T03:55:59;134.93;;;127.87;;
23802;SDS011;12082;51.786;6.018;2023-05-20T03:58:25;135.83;;;129.00;;
23802;SDS011;12082;51.786;6.018;2023-05-20T04:00:53;133.73;;;127.13;;
23802;SDS011;12082;51.786;6.018;2023-05-20T04:03:19;134.27;;;127.83;;
23802;SDS011;12082;51.786;6.018;2023-05-20T04:05:44;132.73;;;126.13;;
23802;SDS011;12082;51.786;6.018;2023-05-20T04:08:10;134.80;;;128.13;;
23802;SDS011;12082;51.786;6.018;2023-05-20T04:10:39;132.83;;;126.30;;
23802;SDS011;12082;51.786;6.018;2023-05-20T04:13:06;129.57;;;123.23;;
23802;SDS011;12082;51.786;6.018;2023-05-20T04:15:34;137.53;;;130.70;;
23802;SDS011;12082;51.786;6.018;2023-05-20T04:18:00;140.97;;;133.70;;
23802;SDS011;12082;51.786;6.018;2023-05-20T04:20:26;141.70;;;134.63;;
23802;SDS011;12082;51.786;6.018;2023-05-20T04:22:52;142.43;;;135.30;;
23802;SDS011;12082;51.786;6.018;2023-05-20T04:25:18;141.73;;;134.53;;
23802;SDS011;12082;51.786;6.018;2023-05-20T04:27:43;142.27;;;135.17;;
23802;SDS011;12082;51.786;6.018;2023-05-20T04:30:10;144.03;;;136.73;;
23802;SDS011;12082;51.786;6.018;2023-05-20T04:32:35;147.53;;;140.20;;
23802;SDS011;12082;51.786;6.018;2023-05-20T04:35:02;150.33;;;142.90;;
23802;SDS011;12082;51.786;6.018;2023-05-20T04:37:31;146.80;;;139.40;;
23802;SDS011;12082;51.786;6.018;2023-05-20T04:39:57;149.97;;;142.10;;
23802;SDS011;12082;51.786;6.018;2023-05-20T04:42:22;144.10;;;136.70;;
23802;SDS011;12082;51.786;6.018;2023-05-20T04:44:48;142.03;;;134.17;;
23802;SDS011;12082;51.786;6.018;2023-05-20T04:47:14;150.30;;;142.37;;
23802;SDS011;12082;51.786;6.018;2023-05-20T04:49:40;145.57;;;137.57;;
23802;SDS011;12082;51.786;6.018;2023-05-20T04:52:06;148.03;;;140.43;;
23802;SDS011;12082;51.786;6.018;2023-05-20T04:54:31;143.93;;;136.43;;
23802;SDS011;12082;51.786;6.018;2023-05-20T04:56:57;148.63;;;140.83;;
23802;SDS011;12082;51.786;6.018;2023-05-20T04:59:23;148.07;;;140.57;;
23802;SDS011;12082;51.786;6.018;2023-05-20T05:01:49;149.53;;;142.10;;
23802;SDS011;12082;51.786;6.018;2023-05-20T05:04:14;150.23;;;142.67;;
23802;SDS011;12082;51.786;6.018;2023-05-20T05:06:40;153.43;;;145.63;;
23802;SDS011;12082;51.786;6.018;2023-05-20T05:09:05;152.30;;;144.50;;
23802;SDS011;12082;51.786;6.018;2023-05-20T05:11:32;153.17;;;145.37;;
23802;SDS011;12082;51.786;6.018;2023-05-20T05:13:57;151.40;;;143.77;;
23802;SDS011;12082;51.786;6.018;2023-05-20T05:16:23;151.67;;;144.17;;
23802;SDS011;12082;51.786;6.018;2023-05-20T05:18:49;148.83;;;141.37;;
23802;SDS011;12082;51.786;6.018;2023-05-20T05:21:14;145.03;;;136.97;;
23802;SDS011;12082;51.786;6.018;2023-05-20T05:23:40;150.67;;;142.93;;
23802;SDS011;12082;51.786;6.018;2023-05-20T05:26:06;148.97;;;141.43;;
23802;SDS011;12082;51.786;6.018;2023-05-20T05:28:32;148.37;;;141.03;;
23802;SDS011;12082;51.786;6.018;2023-05-20T05:30:57;155.73;;;147.90;;
23802;SDS011;12082;51.786;6.018;2023-05-20T05:33:23;165.27;;;156.83;;
23802;SDS011;12082;51.786;6.018;2023-05-20T05:35:49;160.73;;;152.93;;
23802;SDS011;12082;51.786;6.018;2023-05-20T05:38:15;161.37;;;153.17;;
23802;SDS011;12082;51.786;6.018;2023-05-20T05:40:40;161.27;;;153.30;;
23802;SDS011;12082;51.786;6.018;2023-05-20T05:43:06;154.03;;;146.50;;
23802;SDS011;12082;51.786;6.018;2023-05-20T05:45:32;151.20;;;144.00;;
23802;SDS011;12082;51.786;6.018;2023-05-20T05:47:57;139.23;;;132.27;;
23802;SDS011;12082;51.786;6.018;2023-05-20T05:50:23;189.73;;;180.43;;
23802;SDS011;12082;51.786;6.018;2023-05-20T05:52:48;200.50;;;191.10;;
23802;SDS011;12082;51.786;6.018;2023-05-20T05:55:14;211.10;;;201.20;;
23802;SDS011;12082;51.786;6.018;2023-05-20T05:57:39;178.07;;;169.30;;
23802;SDS011;12082;51.786;6.018;2023-05-20T06:00:05;130.00;;;123.77;;
23802;SDS011;12082;51.786;6.018;2023-05-20T06:02:31;90.90;;;86.40;;
23802;SDS011;12082;51.786;6.018;2023-05-20T06:05:00;66.37;;;63.10;;
23802;SDS011;12082;51.786;6.018;2023-05-20T06:07:27;50.73;;;48.30;;
23802;SDS011;12082;51.786;6.018;2023-05-20T06:09:52;44.07;;;41.67;;
23802;SDS011;12082;51.786;6.018;2023-05-20T06:12:18;41.03;;;38.90;;
23802;SDS011;12082;51.786;6.018;2023-05-20T06:14:43;35.63;;;33.63;;
23802;SDS011;12082;51.786;6.018;2023-05-20T06:17:09;26.03;;;24.53;;
23802;SDS011;12082;51.786;6.018;2023-05-20T06:19:35;27.17;;;25.47;;
23802;SDS011;12082;51.786;6.018;2023-05-20T06:22:00;24.00;;;22.47;;
23802;SDS011;12082;51.786;6.018;2023-05-20T06:24:26;19.43;;;18.03;;
23802;SDS011;12082;51.786;6.018;2023-05-20T06:26:52;18.40;;;17.03;;
23802;SDS011;12082;51.786;6.018;2023-05-20T06:29:20;17.70;;;16.60;;
23802;SDS011;12082;51.786;6.018;2023-05-20T06:31:45;17.47;;;16.27;;
23802;SDS011;12082;51.786;6.018;2023-05-20T06:34:11;15.00;;;13.93;;
23802;SDS011;12082;51.786;6.018;2023-05-20T06:36:37;14.60;;;13.43;;
23802;SDS011;12082;51.786;6.018;2023-05-20T06:39:02;13.57;;;12.47;;
23802;SDS011;12082;51.786;6.018;2023-05-20T06:41:30;13.60;;;12.70;;
23802;SDS011;12082;51.786;6.018;2023-05-20T06:43:56;13.30;;;12.30;;
23802;SDS011;12082;51.786;6.018;2023-05-20T06:46:21;11.40;;;10.60;;
23802;SDS011;12082;51.786;6.018;2023-05-20T06:48:47;11.63;;;10.83;;
23802;SDS011;12082;51.786;6.018;2023-05-20T06:51:12;11.03;;;10.33;;
23802;SDS011;12082;51.786;6.018;2023-05-20T06:53:38;12.20;;;11.03;;
23802;SDS011;12082;51.786;6.018;2023-05-20T06:56:04;11.00;;;10.03;;
23802;SDS011;12082;51.786;6.018;2023-05-20T06:58:29;10.97;;;10.07;;
23802;SDS011;12082;51.786;6.018;2023-05-20T07:00:55;10.23;;;9.53;;
23802;SDS011;12082;51.786;6.018;2023-05-20T07:03:21;10.10;;;9.37;;
23802;SDS011;12082;51.786;6.018;2023-05-20T07:05:47;10.40;;;9.60;;
23802;SDS011;12082;51.786;6.018;2023-05-20T07:08:14;9.10;;;8.37;;
23802;SDS011;12082;51.786;6.018;2023-05-20T07:10:39;9.17;;;8.47;;
23802;SDS011;12082;51.786;6.018;2023-05-20T07:13:05;9.20;;;8.50;;
23802;SDS011;12082;51.786;6.018;2023-05-20T07:15:30;9.20;;;8.60;;
23802;SDS011;12082;51.786;6.018;2023-05-20T07:17:56;10.87;;;8.37;;
23802;SDS011;12082;51.786;6.018;2023-05-20T07:20:22;9.30;;;8.60;;
23802;SDS011;12082;51.786;6.018;2023-05-20T07:22:47;8.90;;;8.20;;
23802;SDS011;12082;51.786;6.018;2023-05-20T07:25:14;8.70;;;8.10;;
23802;SDS011;12082;51.786;6.018;2023-05-20T07:27:40;10.00;;;9.20;;
23802;SDS011;12082;51.786;6.018;2023-05-20T07:30:06;9.23;;;8.53;;
23802;SDS011;12082;51.786;6.018;2023-05-20T07:32:32;9.27;;;8.57;;
23802;SDS011;12082;51.786;6.018;2023-05-20T07:34:58;10.17;;;8.70;;
23802;SDS011;12082;51.786;6.018;2023-05-20T07:37:23;9.07;;;8.23;;
23802;SDS011;12082;51.786;6.018;2023-05-20T07:39:49;8.73;;;7.83;;
23802;SDS011;12082;51.786;6.018;2023-05-20T07:42:14;9.73;;;8.73;;
23802;SDS011;12082;51.786;6.018;2023-05-20T07:44:40;14.07;;;8.47;;
23802;SDS011;12082;51.786;6.018;2023-05-20T07:47:06;9.23;;;8.50;;
23802;SDS011;12082;51.786;6.018;2023-05-20T07:49:31;9.07;;;8.20;;
23802;SDS011;12082;51.786;6.018;2023-05-20T07:51:57;9.30;;;8.40;;
23802;SDS011;12082;51.786;6.018;2023-05-20T07:54:22;9.77;;;8.37;;
23802;SDS011;12082;51.786;6.018;2023-05-20T07:56:48;10.03;;;8.73;;
23802;SDS011;12082;51.786;6.018;2023-05-20T07:59:13;9.20;;;8.40;;
23802;SDS011;12082;51.786;6.018;2023-05-20T08:01:40;9.10;;;8.23;;
23802;SDS011;12082;51.786;6.018;2023-05-20T08:04:06;10.20;;;8.17;;
23802;SDS011;12082;51.786;6.018;2023-05-20T08:06:32;9.30;;;8.50;;
23802;SDS011;12082;51.786;6.018;2023-05-20T08:08:59;8.87;;;7.93;;
23802;SDS011;12082;51.786;6.018;2023-05-20T08:11:25;9.07;;;8.30;;
23802;SDS011;12082;51.786;6.018;2023-05-20T08:13:51;8.73;;;8.13;;
23802;SDS011;12082;51.786;6.018;2023-05-20T08:16:16;9.03;;;8.13;;
23802;SDS011;12082;51.786;6.018;2023-05-20T08:18:42;9.20;;;8.30;;
23802;SDS011;12082;51.786;6.018;2023-05-20T08:21:08;9.97;;;9.07;;
23802;SDS011;12082;51.786;6.018;2023-05-20T08:23:34;9.20;;;8.40;;
23802;SDS011;12082;51.786;6.018;2023-05-20T08:26:00;9.37;;;8.77;;
23802;SDS011;12082;51.786;6.018;2023-05-20T08:28:27;9.30;;;8.70;;
23802;SDS011;12082;51.786;6.018;2023-05-20T08:30:53;10.67;;;9.67;;
23802;SDS011;12082;51.786;6.018;2023-05-20T08:33:19;10.17;;;9.37;;
23802;SDS011;12082;51.786;6.018;2023-05-20T08:35:46;9.73;;;9.00;;
23802;SDS011;12082;51.786;6.018;2023-05-20T08:38:12;10.27;;;9.40;;
23802;SDS011;12082;51.786;6.018;2023-05-20T08:40:38;10.07;;;9.27;;
23802;SDS011;12082;51.786;6.018;2023-05-20T08:43:03;10.47;;;9.27;;
23802;SDS011;12082;51.786;6.018;2023-05-20T08:45:30;10.23;;;9.37;;
23802;SDS011;12082;51.786;6.018;2023-05-20T08:47:57;10.10;;;9.30;;
23802;SDS011;12082;51.786;6.018;2023-05-20T08:50:24;9.67;;;8.97;;
23802;SDS011;12082;51.786;6.018;2023-05-20T08:52:49;9.73;;;9.10;;
23802;SDS011;12082;51.786;6.018;2023-05-20T08:55:25;10.30;;;9.20;;
23802;SDS011;12082;51.786;6.018;2023-05-20T08:57:52;9.37;;;8.70;;
23802;SDS011;12082;51.786;6.018;2023-05-20T09:00:19;9.30;;;8.40;;
23802;SDS011;12082;51.786;6.018;2023-05-20T09:02:47;9.57;;;8.67;;
23802;SDS011;12082;51.786;6.018;2023-05-20T09:05:13;10.00;;;9.17;;
23802;SDS011;12082;51.786;6.018;2023-05-20T09:07:39;9.80;;;8.97;;
23802;SDS011;12082;51.786;6.018;2023-05-20T09:10:06;12.80;;;9.30;;
23802;SDS011;12082;51.786;6.018;2023-05-20T09:12:32;10.07;;;9.47;;
23802;SDS011;12082;51.786;6.018;2023-05-20T09:14:58;11.00;;;10.07;;
23802;SDS011;12082;51.786;6.018;2023-05-20T09:17:23;10.60;;;9.30;;
23802;SDS011;12082;51.786;6.018;2023-05-20T09:19:49;10.83;;;9.73;;
23802;SDS011;12082;51.786;6.018;2023-05-20T09:22:22;10.70;;;9.57;;
23802;SDS011;12082;51.786;6.018;2023-05-20T09:24:49;10.70;;;10.00;;
23802;SDS011;12082;51.786;6.018;2023-05-20T09:27:16;12.03;;;10.80;;
23802;SDS011;12082;51.786;6.018;2023-05-20T09:29:42;10.80;;;10.00;;
23802;SDS011;12082;51.786;6.018;2023-05-20T09:32:08;10.10;;;9.30;;
23802;SDS011;12082;51.786;6.018;2023-05-20T09:34:34;13.07;;;10.90;;
23802;SDS011;12082;51.786;6.018;2023-05-20T09:37:01;11.20;;;10.20;;
23802;SDS011;12082;51.786;6.018;2023-05-20T09:39:29;12.47;;;9.70;;
23802;SDS011;12082;51.786;6.018;2023-05-20T09:42:01;11.10;;;9.97;;
23802;SDS011;12082;51.786;6.018;2023-05-20T09:44:36;11.43;;;10.50;;
23802;SDS011;12082;51.786;6.018;2023-05-20T09:47:03;11.27;;;10.53;;
23802;SDS011;12082;51.786;6.018;2023-05-20T09:49:31;11.30;;;10.47;;
23802;SDS011;12082;51.786;6.018;2023-05-20T09:51:58;10.80;;;9.83;;
23802;SDS011;12082;51.786;6.018;2023-05-20T09:54:26;11.40;;;10.50;;
23802;SDS011;12082;51.786;6.018;2023-05-20T09:56:52;11.17;;;10.10;;
23802;SDS011;12082;51.786;6.018;2023-05-20T09:59:18;11.67;;;10.53;;
23802;SDS011;12082;51.786;6.018;2023-05-20T10:01:46;12.60;;;11.67;;
23802;SDS011;12082;51.786;6.018;2023-05-20T10:04:11;12.57;;;11.57;;
23802;SDS011;12082;51.786;6.018;2023-05-20T10:06:44;10.77;;;10.17;;
23802;SDS011;12082;51.786;6.018;2023-05-20T10:17:39;12.87;;;12.00;;
23802;SDS011;12082;51.786;6.018;2023-05-20T10:20:45;11.33;;;10.53;;
23802;SDS011;12082;51.786;6.018;2023-05-20T10:25:51;14.37;;;13.57;;
23802;SDS011;12082;51.786;6.018;2023-05-20T10:28:26;12.73;;;12.03;;
23802;SDS011;12082;51.786;6.018;2023-05-20T10:30:56;12.40;;;11.50;;
23802;SDS011;12082;51.786;6.018;2023-05-20T10:33:23;11.70;;;10.83;;
23802;SDS011;12082;51.786;6.018;2023-05-20T10:35:51;11.60;;;10.70;;
23802;SDS011;12082;51.786;6.018;2023-05-20T10:38:17;11.40;;;10.60;;
23802;SDS011;12082;51.786;6.018;2023-05-20T10:40:43;12.70;;;11.90;;
23802;SDS011;12082;51.786;6.018;2023-05-20T10:43:12;12.27;;;11.47;;
23802;SDS011;12082;51.786;6.018;2023-05-20T10:45:48;12.23;;;11.53;;
23802;SDS011;12082;51.786;6.018;2023-05-20T10:48:24;12.60;;;11.70;;
23802;SDS011;12082;51.786;6.018;2023-05-20T10:50:58;12.30;;;11.60;;
23802;SDS011;12082;51.786;6.018;2023-05-20T10:53:28;12.33;;;11.73;;
23802;SDS011;12082;51.786;6.018;2023-05-20T10:56:01;12.13;;;11.13;;
23802;SDS011;12082;51.786;6.018;2023-05-20T10:58:34;12.27;;;11.37;;
23802;SDS011;12082;51.786;6.018;2023-05-20T11:01:01;13.63;;;12.63;;
23802;SDS011;12082;51.786;6.018;2023-05-20T11:03:27;11.40;;;10.80;;
23802;SDS011;12082;51.786;6.018;2023-05-20T11:05:54;11.40;;;10.70;;
23802;SDS011;12082;51.786;6.018;2023-05-20T11:08:20;10.97;;;10.20;;
23802;SDS011;12082;51.786;6.018;2023-05-20T11:10:46;9.87;;;9.07;;
23802;SDS011;12082;51.786;6.018;2023-05-20T11:13:12;10.00;;;9.30;;
23802;SDS011;12082;51.786;6.018;2023-05-20T11:15:41;10.13;;;9.33;;
23802;SDS011;12082;51.786;6.018;2023-05-20T11:18:07;9.80;;;9.10;;
23802;SDS011;12082;51.786;6.018;2023-05-20T11:20:36;9.23;;;8.53;;
23802;SDS011;12082;51.786;6.018;2023-05-20T11:23:01;9.30;;;8.80;;
23802;SDS011;12082;51.786;6.018;2023-05-20T11:25:29;9.70;;;9.00;;
23802;SDS011;12082;51.786;6.018;2023-05-20T11:27:56;9.33;;;8.80;;
23802;SDS011;12082;51.786;6.018;2023-05-20T11:30:23;9.60;;;8.80;;
23802;SDS011;12082;51.786;6.018;2023-05-20T11:32:56;9.43;;;8.70;;
23802;SDS011;12082;51.786;6.018;2023-05-20T11:35:23;9.73;;;9.13;;
23802;SDS011;12082;51.786;6.018;2023-05-20T11:38:05;10.40;;;9.60;;
23802;SDS011;12082;51.786;6.018;2023-05-20T11:40:34;9.77;;;9.27;;
23802;SDS011;12082;51.786;6.018;2023-05-20T11:43:00;10.10;;;9.50;;
23802;SDS011;12082;51.786;6.018;2023-05-20T11:45:37;10.40;;;9.50;;
23802;SDS011;12082;51.786;6.018;2023-05-20T11:48:07;9.93;;;9.33;;
23802;SDS011;12082;51.786;6.018;2023-05-20T11:50:34;10.40;;;9.50;;
23802;SDS011;12082;51.786;6.018;2023-05-20T11:53:03;10.23;;;9.63;;
23802;SDS011;12082;51.786;6.018;2023-05-20T11:55:30;9.80;;;9.30;;
23802;SDS011;12082;51.786;6.018;2023-05-20T11:57:57;10.40;;;9.33;;
23802;SDS011;12082;51.786;6.018;2023-05-20T12:00:23;9.00;;;8.50;;
23802;SDS011;12082;51.786;6.018;2023-05-20T12:02:50;10.20;;;9.60;;
23802;SDS011;12082;51.786;6.018;2023-05-20T12:05:17;9.57;;;9.03;;
23802;SDS011;12082;51.786;6.018;2023-05-20T12:07:42;10.60;;;9.73;;
23802;SDS011;12082;51.786;6.018;2023-05-20T12:10:08;9.70;;;9.07;;
23802;SDS011;12082;51.786;6.018;2023-05-20T12:12:35;9.30;;;8.73;;
23802;SDS011;12082;51.786;6.018;2023-05-20T12:15:04;9.63;;;9.10;;
23802;SDS011;12082;51.786;6.018;2023-05-20T12:17:42;11.23;;;10.30;;
23802;SDS011;12082;51.786;6.018;2023-05-20T12:20:12;9.97;;;9.37;;
23802;SDS011;12082;51.786;6.018;2023-05-20T12:22:40;10.83;;;10.13;;
23802;SDS011;12082;51.786;6.018;2023-05-20T12:25:05;11.17;;;10.30;;
23802;SDS011;12082;51.786;6.018;2023-05-20T12:27:31;11.13;;;10.53;;
23802;SDS011;12082;51.786;6.018;2023-05-20T12:29:57;11.40;;;10.30;;
23802;SDS011;12082;51.786;6.018;2023-05-20T12:32:23;11.37;;;10.47;;
23802;SDS011;12082;51.786;6.018;2023-05-20T12:34:49;10.83;;;10.20;;
23802;SDS011;12082;51.786;6.018;2023-05-20T12:37:14;9.87;;;9.10;;
23802;SDS011;12082;51.786;6.018;2023-05-20T12:39:40;10.33;;;9.77;;
23802;SDS011;12082;51.786;6.018;2023-05-20T12:42:06;9.47;;;8.97;;
23802;SDS011;12082;51.786;6.018;2023-05-20T12:44:31;9.60;;;8.90;;
23802;SDS011;12082;51.786;6.018;2023-05-20T12:46:57;10.10;;;9.40;;
23802;SDS011;12082;51.786;6.018;2023-05-20T12:49:22;9.10;;;8.20;;
23802;SDS011;12082;51.786;6.018;2023-05-20T12:51:48;10.60;;;9.83;;
23802;SDS011;12082;51.786;6.018;2023-05-20T12:54:13;9.70;;;8.80;;
23802;SDS011;12082;51.786;6.018;2023-05-20T12:56:39;11.20;;;9.90;;
23802;SDS011;12082;51.786;6.018;2023-05-20T12:59:05;10.50;;;9.73;;
23802;SDS011;12082;51.786;6.018;2023-05-20T13:01:31;10.27;;;9.67;;
23802;SDS011;12082;51.786;6.018;2023-05-20T13:03:56;11.40;;;10.60;;
23802;SDS011;12082;51.786;6.018;2023-05-20T13:06:22;10.37;;;9.77;;
23802;SDS011;12082;51.786;6.018;2023-05-20T13:08:48;10.97;;;10.17;;
23802;SDS011;12082;51.786;6.018;2023-05-20T13:11:14;10.00;;;9.30;;
23802;SDS011;12082;51.786;6.018;2023-05-20T13:13:39;10.03;;;9.03;;
23802;SDS011;12082;51.786;6.018;2023-05-20T13:16:05;10.67;;;9.97;;
23802;SDS011;12082;51.786;6.018;2023-05-20T13:18:31;11.97;;;10.97;;
23802;SDS011;12082;51.786;6.018;2023-05-20T13:20:56;10.20;;;9.60;;
23802;SDS011;12082;51.786;6.018;2023-05-20T13:23:22;10.77;;;9.90;;
23802;SDS011;12082;51.786;6.018;2023-05-20T13:25:47;10.10;;;9.10;;
23802;SDS011;12082;51.786;6.018;2023-05-20T13:28:13;10.53;;;9.83;;
23802;SDS011;12082;51.786;6.018;2023-05-20T13:30:42;11.60;;;10.60;;
23802;SDS011;12082;51.786;6.018;2023-05-20T13:33:07;10.60;;;10.00;;
23802;SDS011;12082;51.786;6.018;2023-05-20T13:35:33;10.90;;;10.13;;
23802;SDS011;12082;51.786;6.018;2023-05-20T13:37:58;10.07;;;9.47;;
23802;SDS011;12082;51.786;6.018;2023-05-20T13:40:24;10.27;;;9.70;;
23802;SDS011;12082;51.786;6.018;2023-05-20T13:42:50;10.00;;;9.33;;
23802;SDS011;12082;51.786;6.018;2023-05-20T13:45:15;11.53;;;10.47;;
23802;SDS011;12082;51.786;6.018;2023-05-20T13:47:42;10.40;;;9.70;;
23802;SDS011;12082;51.786;6.018;2023-05-20T13:50:08;9.87;;;9.27;;
23802;SDS011;12082;51.786;6.018;2023-05-20T13:52:34;9.70;;;9.10;;
23802;SDS011;12082;51.786;6.018;2023-05-20T13:55:00;9.70;;;9.20;;
23802;SDS011;12082;51.786;6.018;2023-05-20T13:57:25;10.60;;;9.67;;
23802;SDS011;12082;51.786;6.018;2023-05-20T13:59:51;11.17;;;10.23;;
23802;SDS011;12082;51.786;6.018;2023-05-20T14:02:16;9.00;;;8.50;;
23802;SDS011;12082;51.786;6.018;2023-05-20T14:04:42;9.47;;;8.90;;
23802;SDS011;12082;51.786;6.018;2023-05-20T14:07:10;9.70;;;8.90;;
23802;SDS011;12082;51.786;6.018;2023-05-20T14:09:36;9.57;;;8.83;;
23802;SDS011;12082;51.786;6.018;2023-05-20T14:12:02;9.23;;;8.63;;
23802;SDS011;12082;51.786;6.018;2023-05-20T14:14:28;9.63;;;8.83;;
23802;SDS011;12082;51.786;6.018;2023-05-20T14:16:54;9.97;;;9.07;;
23802;SDS011;12082;51.786;6.018;2023-05-20T14:19:20;9.30;;;8.70;;
23802;SDS011;12082;51.786;6.018;2023-05-20T14:21:45;9.63;;;9.03;;
23802;SDS011;12082;51.786;6.018;2023-05-20T14:24:11;11.60;;;8.30;;
23802;SDS011;12082;51.786;6.018;2023-05-20T14:26:36;9.10;;;8.50;;
23802;SDS011;12082;51.786;6.018;2023-05-20T14:29:02;9.73;;;9.03;;